Time;durP1;ratioP1;P1;durP2;ratioP2;P2;SDS_P1;SDS_P2;PMS_P1;PMS_P2;Temp;Humidity;BMP_temperature;BMP_pressure;BME280_temperature;BME280_humidity;BME280_pressure;Samples;Min_cycle;Max_cycle;Signal;HPM_P1;HPM_P2
2022/08/26 00:00:53;;;;;;;8.20;7.60;;;28.80;42.00;;;;;;4996428;28;20900;-53
2022/08/26 00:03:23;;;;;;;10.10;9.30;;;28.80;42.10;;;;;;5000694;28;20518;-52
2022/08/26 00:05:52;;;;;;;9.70;8.70;;;28.80;42.00;;;;;;4996543;28;20948;-52
2022/08/26 00:08:21;;;;;;;12.30;11.20;;;28.80;42.00;;;;;;5009727;28;20455;-53
2022/08/26 00:10:50;;;;;;;10.30;9.40;;;28.80;42.10;;;;;;4997982;28;20441;-53
2022/08/26 00:13:19;;;;;;;8.83;8.13;;;28.80;42.00;;;;;;5000234;28;20540;-54
2022/08/26 00:15:49;;;;;;;9.60;8.60;;;28.80;42.00;;;;;;4997932;28;20993;-53
2022/08/26 00:18:19;;;;;;;8.20;7.70;;;28.80;42.00;;;;;;5009942;28;20467;-52
2022/08/26 00:20:50;;;;;;;10.90;10.00;;;28.80;42.00;;;;;;4994413;28;20450;-53
2022/08/26 00:23:19;;;;;;;9.87;9.17;;;28.80;42.00;;;;;;4993696;28;20834;-53
2022/08/26 00:25:52;;;;;;;9.23;8.40;;;28.80;42.10;;;;;;5002152;28;20860;-52
2022/08/26 00:28:21;;;;;;;11.13;10.23;;;28.80;42.00;;;;;;4993128;28;21007;-53
2022/08/26 00:30:51;;;;;;;9.30;8.60;;;28.80;42.10;;;;;;4977293;28;20851;-53
2022/08/26 00:33:22;;;;;;;11.33;10.53;;;28.80;42.10;;;;;;4996411;28;20457;-53
2022/08/26 00:35:50;;;;;;;12.10;11.10;;;28.70;42.40;;;;;;4987009;28;20512;-53
2022/08/26 00:38:21;;;;;;;13.43;12.23;;;28.70;42.60;;;;;;4998177;28;20963;-53
2022/08/26 00:40:52;;;;;;;10.53;9.43;;;28.70;42.70;;;;;;5005530;28;20463;-53
2022/08/26 00:43:23;;;;;;;10.67;9.77;;;28.70;42.80;;;;;;5003709;28;20548;-51
2022/08/26 00:45:56;;;;;;;10.70;9.90;;;28.70;42.90;;;;;;4996304;28;20845;-53
2022/08/26 00:48:30;;;;;;;13.23;12.00;;;28.70;43.00;;;;;;5038354;28;20437;-53
2022/08/26 00:51:02;;;;;;;10.17;9.33;;;28.70;42.90;;;;;;4995726;28;20449;-53
2022/08/26 00:53:37;;;;;;;9.90;9.00;;;28.70;43.00;;;;;;4996504;28;20471;-53
2022/08/26 00:56:17;;;;;;;9.60;8.80;;;28.70;42.90;;;;;;4989368;28;20472;-52
2022/08/26 00:58:46;;;;;;;9.43;8.67;;;28.70;43.10;;;;;;4994836;28;20439;-54
2022/08/26 01:01:18;;;;;;;11.73;10.80;;;28.70;43.10;;;;;;5011124;28;21169;-53
2022/08/26 01:03:53;;;;;;;10.87;9.97;;;28.70;43.10;;;;;;4994303;28;20522;-52
2022/08/26 01:06:23;;;;;;;9.50;8.67;;;28.70;43.20;;;;;;4999198;28;20552;-53
2022/08/26 01:08:53;;;;;;;13.13;11.80;;;28.70;43.40;;;;;;5004335;28;20532;-53
2022/08/26 01:11:22;;;;;;;8.80;8.10;;;28.70;43.50;;;;;;5018880;28;20490;-54
2022/08/26 01:13:54;;;;;;;8.13;7.50;;;28.70;43.50;;;;;;5007192;28;20464;-52
2022/08/26 01:16:24;;;;;;;10.83;9.87;;;28.70;43.60;;;;;;4995745;28;20508;-54
2022/08/26 01:18:58;;;;;;;12.47;11.47;;;28.70;43.70;;;;;;4994807;28;20464;-53
2022/08/26 01:21:35;;;;;;;9.83;8.83;;;28.60;43.60;;;;;;4993142;28;20452;-52
2022/08/26 01:24:10;;;;;;;9.00;8.30;;;28.60;43.60;;;;;;5010193;28;20514;-54
2022/08/26 01:26:44;;;;;;;9.37;8.67;;;28.60;43.60;;;;;;4991486;28;20464;-53
2022/08/26 01:29:17;;;;;;;10.07;9.37;;;28.60;43.70;;;;;;5037397;28;20487;-54
2022/08/26 01:31:55;;;;;;;9.60;8.73;;;28.60;43.80;;;;;;4995608;28;20958;-53
2022/08/26 01:34:26;;;;;;;10.57;9.67;;;28.60;43.80;;;;;;4993614;28;20539;-53
2022/08/26 01:37:01;;;;;;;10.43;9.53;;;28.60;43.90;;;;;;4984907;28;20507;-53
2022/08/26 01:39:32;;;;;;;8.73;8.03;;;28.60;44.00;;;;;;5030416;28;20440;-53
2022/08/26 01:42:01;;;;;;;9.40;8.70;;;28.60;43.90;;;;;;5026742;28;20507;-53
2022/08/26 01:44:35;;;;;;;9.83;9.13;;;28.60;43.80;;;;;;5003206;28;20480;-53
2022/08/26 01:47:04;;;;;;;11.73;10.67;;;28.60;44.00;;;;;;5031291;28;20487;-51
2022/08/26 01:49:35;;;;;;;10.70;9.77;;;28.60;44.20;;;;;;5037862;28;20452;-51
2022/08/26 01:52:06;;;;;;;10.10;9.10;;;28.60;44.10;;;;;;4986583;28;20467;-53
2022/08/26 01:54:39;;;;;;;9.70;9.00;;;28.60;44.10;;;;;;5034988;28;20463;-53
2022/08/26 01:57:08;;;;;;;9.13;8.33;;;28.50;44.20;;;;;;5004606;28;20842;-53
2022/08/26 01:59:37;;;;;;;10.10;9.20;;;28.50;44.10;;;;;;4993453;28;20863;-54
2022/08/26 02:02:06;;;;;;;10.93;10.13;;;28.50;44.20;;;;;;4999865;28;20469;-53
2022/08/26 02:04:41;;;;;;;9.97;9.07;;;28.50;44.30;;;;;;4991320;28;20469;-53
2022/08/26 02:07:11;;;;;;;11.23;9.10;;;28.50;44.40;;;;;;5028640;28;20475;-51
2022/08/26 02:09:42;;;;;;;11.17;10.13;;;28.50;44.30;;;;;;4988170;28;20542;-53
2022/08/26 02:12:13;;;;;;;9.47;8.70;;;28.50;44.40;;;;;;4997988;28;20475;-53
2022/08/26 02:14:45;;;;;;;8.60;8.00;;;28.50;44.30;;;;;;5001633;28;20507;-53
2022/08/26 02:17:17;;;;;;;9.80;9.00;;;28.50;44.30;;;;;;4999958;28;20468;-54
2022/08/26 02:19:49;;;;;;;9.33;8.53;;;28.50;44.20;;;;;;4991458;28;20447;-53
2022/08/26 02:22:20;;;;;;;8.90;8.10;;;28.50;44.30;;;;;;4992247;28;20944;-53
2022/08/26 02:24:56;;;;;;;9.60;8.90;;;28.50;44.20;;;;;;4993793;28;20493;-53
2022/08/26 02:27:28;;;;;;;8.53;7.83;;;28.50;44.30;;;;;;4994543;28;21054;-53
2022/08/26 02:30:12;;;;;;;8.47;7.87;;;28.50;44.30;;;;;;4996709;28;20439;-53
2022/08/26 02:32:40;;;;;;;8.67;7.87;;;28.50;44.30;;;;;;4994496;28;20488;-52
2022/08/26 02:35:12;;;;;;;10.33;9.40;;;28.50;44.40;;;;;;4991369;28;20514;-52
2022/08/26 02:37:48;;;;;;;8.90;8.20;;;28.50;44.50;;;;;;4993592;28;20472;-53
2022/08/26 02:40:22;;;;;;;13.13;9.53;;;28.50;44.60;;;;;;4999273;28;20449;-52
2022/08/26 02:42:52;;;;;;;10.07;9.27;;;28.50;44.60;;;;;;5009781;28;20854;-53
2022/08/26 02:45:26;;;;;;;9.53;8.83;;;28.50;44.60;;;;;;4989030;28;20446;-53
2022/08/26 02:47:56;;;;;;;9.63;8.83;;;28.50;44.60;;;;;;5008310;28;21086;-53
2022/08/26 02:50:27;;;;;;;11.67;9.47;;;28.50;45.90;;;;;;4985970;28;20458;-53
2022/08/26 02:52:56;;;;;;;9.60;8.73;;;28.50;44.80;;;;;;5026748;28;20476;-53
2022/08/26 02:55:26;;;;;;;9.37;8.47;;;28.50;44.80;;;;;;4988148;28;20448;-53
2022/08/26 02:57:55;;;;;;;9.30;8.53;;;28.50;44.80;;;;;;4998739;28;20472;-53
2022/08/26 03:00:23;;;;;;;7.57;6.97;;;28.50;44.80;;;;;;4988226;28;20535;-52
2022/08/26 03:02:53;;;;;;;10.47;9.57;;;28.50;44.80;;;;;;4990784;28;20820;-53
2022/08/26 03:05:22;;;;;;;10.07;9.20;;;28.50;44.80;;;;;;5026269;28;20440;-53
2022/08/26 03:07:52;;;;;;;9.23;8.37;;;28.50;44.90;;;;;;4990483;28;20526;-52
2022/08/26 03:10:22;;;;;;;8.13;7.53;;;28.40;44.90;;;;;;4992525;28;20928;-52
2022/08/26 03:12:56;;;;;;;9.63;8.90;;;28.40;44.80;;;;;;4997768;28;20517;-53
2022/08/26 03:15:25;;;;;;;9.70;8.90;;;28.40;44.80;;;;;;5016071;28;20443;-53
2022/08/26 03:17:55;;;;;;;8.93;8.23;;;28.40;44.80;;;;;;5010406;28;20480;-53
2022/08/26 03:20:24;;;;;;;8.40;7.70;;;28.40;44.80;;;;;;5024767;28;20457;-53
2022/08/26 03:22:54;;;;;;;8.40;7.70;;;28.40;45.00;;;;;;5012191;28;20472;-52
2022/08/26 03:25:25;;;;;;;9.27;8.43;;;28.40;44.90;;;;;;4996529;28;20805;-53
2022/08/26 03:27:55;;;;;;;8.60;7.97;;;28.40;44.80;;;;;;4991419;28;20473;-54
2022/08/26 03:30:41;;;;;;;8.90;8.20;;;28.40;44.80;;;;;;4997768;28;20859;-53
2022/08/26 03:33:13;;;;;;;9.00;8.20;;;28.40;44.90;;;;;;4995457;28;20511;-53
2022/08/26 03:35:44;;;;;;;8.00;7.40;;;28.40;44.90;;;;;;4995248;28;20449;-53
2022/08/26 03:38:13;;;;;;;8.43;7.50;;;28.40;44.90;;;;;;5035815;28;20440;-52
2022/08/26 03:40:42;;;;;;;8.07;7.47;;;28.40;44.80;;;;;;5011566;28;20805;-53
2022/08/26 03:43:14;;;;;;;8.80;7.93;;;28.40;44.90;;;;;;4995268;28;20536;-52
2022/08/26 03:45:43;;;;;;;6.73;6.20;;;28.40;45.00;;;;;;5005955;28;20440;-53
2022/08/26 03:48:13;;;;;;;8.60;7.10;;;28.40;45.00;;;;;;5047401;28;20459;-53
2022/08/26 03:50:42;;;;;;;7.97;7.37;;;28.40;45.00;;;;;;5002193;28;20441;-53
2022/08/26 03:53:11;;;;;;;7.83;7.33;;;28.40;45.00;;;;;;5002594;28;20468;-52
2022/08/26 03:55:41;;;;;;;7.63;6.90;;;28.40;45.00;;;;;;5005383;28;20436;-54
2022/08/26 03:58:12;;;;;;;6.93;6.27;;;28.40;45.00;;;;;;5007013;28;20466;-53
2022/08/26 04:00:41;;;;;;;7.37;6.77;;;28.40;44.90;;;;;;4995952;28;20449;-53
2022/08/26 04:03:13;;;;;;;7.07;6.47;;;28.40;45.10;;;;;;4996644;28;20449;-52
2022/08/26 04:05:46;;;;;;;8.00;6.67;;;28.40;45.00;;;;;;4985008;28;20448;-52
2022/08/26 04:08:14;;;;;;;7.63;7.03;;;28.40;45.00;;;;;;5001865;28;20433;-53
2022/08/26 04:10:43;;;;;;;6.87;6.37;;;28.40;45.10;;;;;;4996354;28;20923;-53
2022/08/26 04:13:13;;;;;;;5.93;5.50;;;28.40;45.10;;;;;;4995008;28;20483;-52
2022/08/26 04:15:43;;;;;;;6.67;6.17;;;28.40;45.10;;;;;;5003411;28;20479;-53
2022/08/26 04:18:12;;;;;;;7.77;7.17;;;28.40;45.00;;;;;;4979764;28;20465;-52
2022/08/26 04:20:40;;;;;;;7.07;6.50;;;28.40;45.20;;;;;;4993477;28;20436;-53
2022/08/26 04:23:09;;;;;;;7.83;7.10;;;28.40;45.20;;;;;;4995598;28;20842;-53
2022/08/26 04:25:37;;;;;;;6.97;6.30;;;28.30;45.00;;;;;;4995774;28;20963;-53
2022/08/26 04:28:07;;;;;;;8.10;7.30;;;28.30;45.10;;;;;;5021492;28;20469;-52
2022/08/26 04:30:38;;;;;;;7.07;6.53;;;28.30;45.00;;;;;;4976796;28;20472;-52
2022/08/26 04:33:12;;;;;;;6.30;5.80;;;28.30;45.10;;;;;;5018090;28;20471;-52
2022/08/26 04:35:42;;;;;;;7.00;6.40;;;28.30;45.00;;;;;;4993019;28;20504;-52
2022/08/26 04:38:11;;;;;;;6.93;6.23;;;28.30;45.10;;;;;;5017865;28;20837;-53
2022/08/26 04:40:43;;;;;;;6.47;5.97;;;28.30;45.10;;;;;;4998483;28;20433;-51
2022/08/26 04:43:15;;;;;;;6.70;6.20;;;28.30;45.20;;;;;;5022302;28;20464;-53
2022/08/26 04:45:45;;;;;;;6.27;5.77;;;28.30;45.20;;;;;;5006237;28;21000;-53
2022/08/26 04:48:14;;;;;;;6.60;6.10;;;28.30;45.30;;;;;;5028368;28;20433;-53
2022/08/26 04:50:44;;;;;;;8.20;7.20;;;28.30;45.30;;;;;;4994448;28;20990;-53
2022/08/26 04:53:17;;;;;;;7.60;5.37;;;28.30;45.40;;;;;;5017565;28;21003;-53
2022/08/26 04:55:45;;;;;;;6.20;5.70;;;28.30;45.30;;;;;;4997651;28;20452;-52
2022/08/26 04:58:16;;;;;;;6.17;5.33;;;28.30;45.40;;;;;;5035100;28;20486;-53
2022/08/26 05:00:47;;;;;;;7.00;6.40;;;28.30;45.30;;;;;;5010503;28;20441;-52
2022/08/26 05:03:17;;;;;;;5.93;5.40;;;28.20;45.20;;;;;;4995097;28;20468;-53
2022/08/26 05:05:48;;;;;;;5.80;5.30;;;28.20;45.40;;;;;;4994736;28;20557;-52
2022/08/26 05:08:18;;;;;;;5.70;5.27;;;28.20;45.30;;;;;;5002767;28;20942;-53
2022/08/26 05:10:51;;;;;;;5.33;4.93;;;28.20;45.30;;;;;;4980349;28;20445;-52
2022/08/26 05:13:21;;;;;;;5.40;4.90;;;28.20;45.30;;;;;;5004176;28;20453;-52
2022/08/26 05:15:51;;;;;;;6.03;5.60;;;28.20;45.30;;;;;;5000086;28;20449;-53
2022/08/26 05:18:24;;;;;;;5.60;5.20;;;28.20;46.20;;;;;;5024284;28;20468;-52
2022/08/26 05:20:54;;;;;;;4.93;4.53;;;28.20;45.50;;;;;;4997118;28;20449;-53
2022/08/26 05:23:24;;;;;;;5.63;5.10;;;28.20;45.40;;;;;;4997930;28;20459;-52
2022/08/26 05:25:54;;;;;;;5.77;5.17;;;28.20;45.40;;;;;;5026729;28;20437;-54
2022/08/26 05:28:29;;;;;;;5.93;5.43;;;28.20;45.40;;;;;;4993873;28;20457;-51
2022/08/26 05:30:59;;;;;;;5.60;5.20;;;28.20;45.40;;;;;;5007786;28;20487;-52
2022/08/26 05:33:28;;;;;;;5.80;5.30;;;28.20;45.40;;;;;;5002970;28;20449;-53
2022/08/26 05:35:56;;;;;;;5.70;5.10;;;28.20;45.40;;;;;;4995160;28;20934;-53
2022/08/26 05:38:25;;;;;;;6.73;5.67;;;28.20;45.40;;;;;;5037711;28;20866;-53
2022/08/26 05:40:57;;;;;;;5.40;5.00;;;28.20;45.40;;;;;;4997689;28;20924;-53
2022/08/26 05:43:26;;;;;;;6.13;5.03;;;28.10;45.30;;;;;;5000269;28;20588;-53
2022/08/26 05:45:56;;;;;;;5.17;4.80;;;28.20;45.40;;;;;;4999306;28;20428;-53
2022/08/26 05:48:26;;;;;;;5.00;4.50;;;28.10;45.30;;;;;;4985687;28;20441;-53
2022/08/26 05:50:54;;;;;;;5.00;4.60;;;28.10;45.40;;;;;;5019289;28;20445;-51
2022/08/26 05:53:24;;;;;;;5.87;4.60;;;28.10;45.40;;;;;;4998874;28;21030;-53
2022/08/26 05:55:54;;;;;;;5.03;4.53;;;28.10;45.40;;;;;;4995813;28;20446;-52
2022/08/26 05:58:24;;;;;;;5.53;5.13;;;28.10;45.40;;;;;;4992855;28;20500;-52
2022/08/26 06:00:59;;;;;;;4.70;4.40;;;28.10;46.10;;;;;;5002338;28;20448;-53
2022/08/26 06:03:32;;;;;;;5.30;4.80;;;28.10;45.40;;;;;;5033400;28;20460;-53
2022/08/26 06:06:04;;;;;;;5.37;4.97;;;28.10;45.40;;;;;;4989359;28;20468;-54
2022/08/26 06:08:35;;;;;;;5.53;4.60;;;28.10;45.40;;;;;;5002525;28;20507;-53
2022/08/26 06:11:06;;;;;;;4.80;4.40;;;28.10;45.40;;;;;;5019268;28;20536;-52
2022/08/26 06:13:44;;;;;;;5.33;4.93;;;28.10;45.40;;;;;;5007645;28;20546;-54
2022/08/26 06:16:15;;;;;;;5.57;5.07;;;28.10;46.70;;;;;;4997681;28;20505;-53
2022/08/26 06:18:47;;;;;;;5.40;4.60;;;28.10;45.40;;;;;;5003065;28;20992;-54
2022/08/26 06:21:18;;;;;;;4.60;4.20;;;28.10;45.50;;;;;;4994325;28;20807;-53
2022/08/26 06:26:37;;;;;;;4.30;4.00;;;28.10;45.50;;;;;;4991093;28;20967;-51
2022/08/26 06:29:10;;;;;;;4.40;4.10;;;28.00;45.50;;;;;;4990189;28;20945;-53
2022/08/26 06:31:43;;;;;;;5.07;4.67;;;28.10;45.50;;;;;;5024183;28;20476;-53
2022/08/26 06:34:13;;;;;;;4.20;3.80;;;28.00;45.50;;;;;;5012961;28;21005;-53
2022/08/26 06:36:43;;;;;;;5.17;4.70;;;28.00;45.50;;;;;;5019745;28;20515;-53
2022/08/26 06:39:15;;;;;;;4.97;4.57;;;28.00;45.50;;;;;;5017351;28;20843;-52
2022/08/26 06:41:45;;;;;;;4.80;4.23;;;28.00;45.60;;;;;;4975959;28;20500;-54
2022/08/26 06:44:18;;;;;;;4.80;4.40;;;28.00;45.60;;;;;;4992350;28;20956;-53
2022/08/26 06:46:48;;;;;;;4.30;4.00;;;28.00;45.60;;;;;;4992228;28;20548;-51
2022/08/26 06:49:19;;;;;;;7.53;4.30;;;28.00;45.60;;;;;;4995858;28;20969;-52
2022/08/26 06:51:56;;;;;;;6.20;4.27;;;28.00;45.50;;;;;;4990086;28;20468;-53
2022/08/26 06:54:27;;;;;;;5.13;4.63;;;28.00;45.60;;;;;;4992914;28;20559;-53
2022/08/26 06:56:56;;;;;;;4.53;4.20;;;28.00;45.60;;;;;;4991990;28;20472;-54
2022/08/26 06:59:25;;;;;;;4.37;4.07;;;28.00;45.60;;;;;;4991871;28;20543;-53
2022/08/26 07:02:01;;;;;;;5.00;4.50;;;28.00;45.60;;;;;;5011505;28;20559;-53
2022/08/26 07:04:31;;;;;;;4.70;4.30;;;28.00;45.60;;;;;;4996736;28;20456;-53
2022/08/26 07:06:59;;;;;;;4.50;4.20;;;28.00;45.70;;;;;;4984999;28;21000;-53
2022/08/26 07:09:31;;;;;;;4.87;4.47;;;27.90;45.60;;;;;;5003372;28;20435;-52
2022/08/26 07:12:01;;;;;;;4.47;4.07;;;28.00;45.60;;;;;;4992575;28;20468;-53
2022/08/26 07:14:48;;;;;;;4.77;4.20;;;27.90;45.60;;;;;;4991601;28;20461;-51
2022/08/26 07:17:34;;;;;;;5.43;4.80;;;27.90;45.30;;;;;;4994174;28;21061;-52
2022/08/26 07:20:24;;;;;;;4.87;4.53;;;27.90;45.60;;;;;;5002534;28;20453;-52
2022/08/26 07:23:05;;;;;;;5.90;5.30;;;27.90;45.70;;;;;;5009172;28;21061;-52
2022/08/26 07:25:45;;;;;;;5.87;5.37;;;27.90;46.00;;;;;;5029032;28;20467;-54
2022/08/26 07:28:27;;;;;;;5.37;4.87;;;27.90;46.10;;;;;;4998315;28;21131;-54
2022/08/26 07:31:29;;;;;;;4.90;4.50;;;27.80;46.10;;;;;;4991840;28;20951;-53
2022/08/26 07:34:19;;;;;;;6.73;4.93;;;27.80;46.30;;;;;;5018024;23;20496;-69
2022/08/26 07:36:49;;;;;;;6.60;5.80;;;27.80;46.60;;;;;;4987894;28;21018;-69
2022/08/26 07:39:18;;;;;;;5.30;4.80;;;27.70;46.70;;;;;;4989361;28;20819;-70
2022/08/26 07:41:46;;;;;;;5.30;4.80;;;27.70;46.70;;;;;;4996925;28;20465;-70
2022/08/26 07:44:16;;;;;;;4.40;4.00;;;27.70;46.80;;;;;;4993627;28;20535;-67
2022/08/26 07:46:45;;;;;;;7.03;5.07;;;27.70;46.90;;;;;;4984810;28;20532;-67
2022/08/26 07:49:21;;;;;;;10.40;5.87;;;27.70;46.90;;;;;;4977365;28;20430;-65
2022/08/26 07:51:51;;;;;;;4.57;3.90;;;27.70;47.10;;;;;;4975206;28;20484;-65
2022/08/26 07:54:21;;;;;;;5.23;4.83;;;27.60;47.10;;;;;;4984038;28;20453;-66
2022/08/26 07:56:54;;;;;;;4.87;4.47;;;27.60;47.10;;;;;;5005800;28;20476;-66
2022/08/26 07:59:23;;;;;;;6.50;4.70;;;27.60;47.20;;;;;;4984917;28;20453;-64
2022/08/26 08:01:51;;;;;;;5.67;4.30;;;27.60;47.30;;;;;;5006209;28;20449;-64
2022/08/26 08:04:20;;;;;;;5.30;4.63;;;27.60;47.30;;;;;;5006053;28;21010;-66
2022/08/26 08:06:55;;;;;;;4.60;4.10;;;27.60;47.30;;;;;;4984169;28;20564;-64
2022/08/26 08:09:23;;;;;;;6.03;4.47;;;27.60;47.40;;;;;;4996226;28;20446;-64
2022/08/26 08:11:56;;;;;;;9.30;4.87;;;27.60;47.50;;;;;;4993260;28;20479;-63
2022/08/26 08:14:44;;;;;;;7.27;4.67;;;27.60;47.60;;;;;;5008721;28;20488;-65
2022/08/26 08:17:33;;;;;;;8.07;3.90;;;27.60;47.60;;;;;;4992413;28;20484;-66
2022/08/26 08:20:21;;;;;;;5.87;4.60;;;27.60;47.60;;;;;;4989866;28;20562;-64
2022/08/26 08:23:10;;;;;;;6.30;4.40;;;27.60;47.70;;;;;;4986069;28;20463;-65
2022/08/26 08:26:01;;;;;;;4.87;3.63;;;27.50;47.80;;;;;;5010662;28;20888;-66
2022/08/26 08:28:48;;;;;;;4.33;3.63;;;27.50;47.90;;;;;;4982429;28;20999;-65
2022/08/26 08:31:36;;;;;;;7.10;3.77;;;27.50;48.10;;;;;;4993744;28;20607;-65
2022/08/26 08:34:43;;;;;;;6.20;4.27;;;27.50;48.20;;;;;;4989167;28;20459;-64
2022/08/26 08:37:30;;;;;;;5.30;3.60;;;27.50;48.30;;;;;;4984745;28;20461;-64
2022/08/26 08:40:19;;;;;;;5.13;3.50;;;27.50;48.20;;;;;;5004174;28;20444;-64
2022/08/26 08:43:10;;;;;;;6.10;3.80;;;27.60;48.30;;;;;;4978016;28;20861;-65
2022/08/26 08:46:00;;;;;;;6.20;4.00;;;27.50;48.60;;;;;;4986964;28;20460;-65
2022/08/26 08:48:57;;;;;;;6.30;3.23;;;27.50;48.60;;;;;;4994537;28;20963;-66
2022/08/26 08:51:51;;;;;;;6.70;4.13;;;27.40;48.90;;;;;;5006109;28;20495;-64
2022/08/26 08:54:41;;;;;;;5.20;4.43;;;27.40;48.90;;;;;;4984325;28;20451;-64
2022/08/26 08:57:43;;;;;;;4.43;3.90;;;27.40;49.00;;;;;;5001241;28;20440;-65
2022/08/26 09:00:39;;;;;;;6.73;4.23;;;27.40;49.00;;;;;;4978826;28;20349;-65
2022/08/26 09:03:43;;;;;;;7.83;5.27;;;27.40;49.10;;;;;;4978632;28;20973;-66
2022/08/26 09:06:29;;;;;;;5.97;4.40;;;27.40;49.10;;;;;;4991290;28;20444;-64
2022/08/26 09:09:23;;;;;;;4.83;3.47;;;27.30;49.10;;;;;;5008700;28;21010;-64
2022/08/26 09:11:55;;;;;;;6.33;3.70;;;27.30;49.30;;;;;;4987910;28;20574;-64
2022/08/26 09:14:25;;;;;;;8.87;4.23;;;27.30;49.50;;;;;;4988400;28;20448;-64
2022/08/26 09:17:04;;;;;;;4.90;4.30;;;27.20;49.30;;;;;;5012304;28;20508;-66
2022/08/26 09:19:40;;;;;;;6.83;4.20;;;27.20;49.40;;;;;;4967196;28;20645;-64
2022/08/26 09:22:08;;;;;;;10.57;4.00;;;27.20;49.60;;;;;;4996309;28;20530;-64
2022/08/26 09:24:40;;;;;;;5.70;4.10;;;27.20;49.50;;;;;;4977031;28;20456;-65
2022/08/26 09:27:37;;;;;;;9.50;4.37;;;27.20;49.40;;;;;;4981676;28;20460;-65
2022/08/26 09:30:09;;;;;;;5.27;4.70;;;27.20;49.60;;;;;;4975014;28;20944;-65
2022/08/26 09:32:39;;;;;;;5.00;4.00;;;27.20;49.70;;;;;;4961137;28;20482;-71
2022/08/26 09:35:18;;;;;;;5.83;4.17;;;27.20;49.60;;;;;;4998069;28;20709;-72
2022/08/26 09:37:48;;;;;;;5.53;4.20;;;27.10;49.70;;;;;;4988152;28;20461;-71
2022/08/26 09:40:26;;;;;;;5.87;4.27;;;27.10;49.80;;;;;;4964996;28;20895;-67
2022/08/26 09:43:08;;;;;;;6.87;4.30;;;27.10;49.80;;;;;;4987818;28;20476;-71
2022/08/26 09:45:39;;;;;;;6.40;3.23;;;27.10;49.60;;;;;;4968165;28;20843;-70
2022/08/26 09:48:30;;;;;;;5.40;3.87;;;27.10;49.80;;;;;;4985322;28;20553;-71
2022/08/26 09:51:03;;;;;;;6.47;3.87;;;27.10;49.80;;;;;;4997992;28;20811;-71
2022/08/26 09:53:35;;;;;;;4.83;3.83;;;27.10;49.80;;;;;;4988725;28;21235;-71
2022/08/26 09:56:16;;;;;;;6.90;3.90;;;27.00;50.00;;;;;;4985060;28;20484;-70
2022/08/26 09:58:47;;;;;;;8.60;3.73;;;27.00;50.00;;;;;;4988311;28;20464;-72
2022/08/26 10:01:28;;;;;;;5.17;3.33;;;27.00;50.20;;;;;;4984600;28;20465;-71
2022/08/26 10:04:07;;;;;;;7.17;4.10;;;27.00;50.20;;;;;;4986917;28;21288;-71
2022/08/26 10:06:40;;;;;;;4.73;3.83;;;27.00;50.10;;;;;;4974845;28;20476;-71
2022/08/26 10:09:13;;;;;;;5.23;4.20;;;27.00;50.40;;;;;;4981788;28;20461;-71
2022/08/26 10:11:48;;;;;;;4.73;4.33;;;27.00;50.20;;;;;;4982321;28;20441;-71
2022/08/26 10:14:23;;;;;;;7.70;4.00;;;27.00;50.40;;;;;;4987151;28;20463;-71
2022/08/26 10:17:00;;;;;;;4.20;3.50;;;27.00;50.40;;;;;;4983689;28;20530;-71
2022/08/26 10:19:35;;;;;;;4.50;4.10;;;27.00;50.40;;;;;;5002820;28;20440;-65
2022/08/26 10:22:29;;;;;;;5.20;3.73;;;26.90;50.50;;;;;;5011590;28;20496;-71
2022/08/26 10:25:02;;;;;;;3.93;3.53;;;26.90;50.50;;;;;;4982575;28;20453;-70
2022/08/26 10:27:39;;;;;;;3.73;3.00;;;26.90;50.50;;;;;;5002334;28;20480;-71
2022/08/26 10:30:24;;;;;;;4.83;3.27;;;26.90;50.70;;;;;;5004190;28;20499;-71
2022/08/26 10:33:00;;;;;;;3.33;2.97;;;26.90;50.70;;;;;;4969567;28;20554;-71
2022/08/26 10:35:30;;;;;;;7.40;3.37;;;26.90;50.80;;;;;;4995613;28;20481;-71
2022/08/26 10:38:04;;;;;;;6.80;3.90;;;26.90;50.70;;;;;;4968757;28;20484;-71
2022/08/26 10:40:42;;;;;;;6.37;3.47;;;26.90;50.50;;;;;;4995997;28;20488;-71
2022/08/26 10:43:17;;;;;;;4.67;2.73;;;26.90;50.70;;;;;;4983254;28;20515;-71
2022/08/26 10:45:50;;;;;;;4.03;3.23;;;26.90;50.80;;;;;;4995674;28;20815;-71
2022/08/26 10:48:24;;;;;;;6.63;3.40;;;26.90;50.80;;;;;;4978053;28;20472;-72
2022/08/26 10:51:04;;;;;;;5.80;3.47;;;26.90;50.80;;;;;;4981747;28;20995;-71
2022/08/26 10:53:45;;;;;;;4.60;2.73;;;26.80;51.00;;;;;;4976686;28;20473;-71
2022/08/26 10:56:29;;;;;;;7.43;3.37;;;26.80;50.80;;;;;;4974797;28;21046;-71
2022/08/26 10:59:09;;;;;;;4.67;3.70;;;26.90;50.90;;;;;;4988258;28;20439;-71
2022/08/26 11:01:48;;;;;;;5.87;3.23;;;26.80;50.80;;;;;;4984027;28;20477;-72
2022/08/26 11:04:42;;;;;;;5.50;3.20;;;26.80;50.80;;;;;;4984257;28;20461;-72
2022/08/26 11:07:41;;;;;;;5.13;2.83;;;26.80;50.90;;;;;;4977959;28;20477;-71
2022/08/26 11:10:46;;;;;;;4.33;2.30;;;26.90;51.00;;;;;;4987426;28;20657;-71
2022/08/26 11:13:16;;;;;;;6.40;4.30;;;26.80;50.90;;;;;;4969425;28;20469;-71
2022/08/26 11:16:09;;;;;;;4.20;3.13;;;26.80;50.90;;;;;;4986015;28;20477;-72
2022/08/26 11:18:47;;;;;;;7.03;2.97;;;26.80;51.10;;;;;;4991153;28;20460;-71
2022/08/26 11:21:48;;;;;;;3.90;2.90;;;26.80;51.20;;;;;;4984768;28;20911;-71
2022/08/26 11:25:10;;;;;;;4.20;2.70;;;26.70;51.30;;;;;;4991684;28;20574;-71
2022/08/26 11:27:53;;;;;;;3.53;2.97;;;26.70;51.40;;;;;;4978158;28;20616;-71
2022/08/26 11:30:48;;;;;;;3.60;3.30;;;26.70;51.50;;;;;;4969420;28;20453;-71
2022/08/26 11:33:57;;;;;;;3.80;2.70;;;26.70;51.40;;;;;;4991541;28;20556;-72
2022/08/26 11:36:57;;;;;;;8.40;3.87;;;26.70;51.40;;;;;;5003457;28;20440;-72
2022/08/26 11:39:30;;;;;;;4.83;3.23;;;26.70;51.40;;;;;;5005132;28;20991;-71
2022/08/26 11:42:16;;;;;;;4.83;2.80;;;26.70;51.30;;;;;;5009096;28;20480;-71
2022/08/26 11:44:48;;;;;;;5.13;3.37;;;26.70;51.20;;;;;;4995479;28;20475;-71
2022/08/26 11:47:27;;;;;;;4.60;3.30;;;26.70;51.40;;;;;;4992673;28;20530;-71
2022/08/26 11:50:14;;;;;;;8.27;3.70;;;26.60;51.40;;;;;;5002816;28;20475;-72
2022/08/26 11:52:53;;;;;;;6.50;3.20;;;26.50;52.10;;;;;;4981662;28;20926;-71
2022/08/26 11:55:22;;;;;;;6.00;2.90;;;26.40;52.50;;;;;;5025990;28;20428;-71
2022/08/26 11:57:55;;;;;;;4.40;2.10;;;26.40;53.70;;;;;;4984219;28;20473;-71
2022/08/26 12:00:26;;;;;;;3.60;2.50;;;26.40;52.30;;;;;;4996060;28;20452;-71
2022/08/26 12:03:06;;;;;;;2.93;2.20;;;26.40;52.10;;;;;;4976407;28;20559;-71
2022/08/26 12:05:38;;;;;;;4.27;3.10;;;26.40;52.00;;;;;;4986157;28;20455;-71
2022/08/26 12:08:11;;;;;;;6.10;3.00;;;26.50;51.90;;;;;;4985708;28;20972;-71
2022/08/26 12:10:39;;;;;;;4.97;2.60;;;26.50;51.80;;;;;;4980776;28;20451;-71
2022/08/26 12:13:08;;;;;;;2.50;2.30;;;26.60;51.80;;;;;;4998831;28;20484;-71
2022/08/26 12:15:37;;;;;;;3.10;2.90;;;26.50;51.60;;;;;;4984499;28;20484;-71
2022/08/26 12:18:21;;;;;;;3.27;2.97;;;26.50;51.50;;;;;;4971676;28;21001;-71
2022/08/26 12:21:00;;;;;;;3.67;2.50;;;26.60;51.40;;;;;;4985747;28;20850;-71
2022/08/26 12:23:44;;;;;;;6.17;2.93;;;26.60;51.30;;;;;;4999164;28;20498;-71
2022/08/26 12:26:21;;;;;;;3.97;2.40;;;26.60;51.20;;;;;;4978269;28;20838;-72
2022/08/26 12:28:54;;;;;;;4.07;3.00;;;26.60;52.40;;;;;;4990718;28;20824;-71
2022/08/26 12:31:31;;;;;;;3.80;2.23;;;26.70;51.20;;;;;;5009234;28;20433;-71
2022/08/26 12:34:02;;;;;;;6.40;3.10;;;26.60;51.10;;;;;;4999381;28;20519;-71
2022/08/26 12:36:35;;;;;;;2.00;1.80;;;26.60;51.00;;;;;;4990786;28;20519;-71
2022/08/26 12:39:11;;;;;;;2.63;2.40;;;26.70;51.00;;;;;;4993771;28;20444;-71
2022/08/26 12:41:43;;;;;;;2.50;2.30;;;26.70;51.00;;;;;;5005218;28;20465;-71
2022/08/26 12:44:33;;;;;;;4.40;2.73;;;26.70;50.90;;;;;;5003871;28;20820;-71
2022/08/26 12:47:04;;;;;;;3.50;2.67;;;26.70;50.90;;;;;;5008852;28;20475;-72
2022/08/26 12:49:32;;;;;;;4.30;2.63;;;26.70;50.80;;;;;;5005115;28;20529;-71
2022/08/26 12:52:01;;;;;;;3.27;2.20;;;26.70;50.80;;;;;;5011186;28;20771;-71
2022/08/26 12:57:13;;;;;;;4.40;2.23;;;26.70;50.70;;;;;;4986093;28;20480;-71
2022/08/26 12:59:42;;;;;;;2.80;2.53;;;26.70;50.80;;;;;;4986688;28;20448;-71
2022/08/26 13:02:11;;;;;;;2.60;2.40;;;26.70;50.80;;;;;;4979046;28;20477;-71
2022/08/26 13:04:42;;;;;;;2.80;2.30;;;26.70;50.70;;;;;;4989235;28;20445;-71
2022/08/26 13:07:23;;;;;;;3.27;2.70;;;26.70;50.60;;;;;;5003830;28;20476;-71
2022/08/26 13:09:55;;;;;;;2.57;1.87;;;26.70;50.70;;;;;;5018818;28;20668;-71
2022/08/26 13:12:29;;;;;;;2.30;2.10;;;26.70;50.60;;;;;;4990542;28;21125;-71
2022/08/26 13:14:59;;;;;;;3.70;2.13;;;26.70;50.50;;;;;;4986383;28;20519;-71
2022/08/26 13:17:28;;;;;;;2.50;2.10;;;26.70;50.50;;;;;;4987094;28;20485;-71
2022/08/26 13:19:57;;;;;;;2.20;2.00;;;26.70;50.70;;;;;;4987409;28;20844;-71
2022/08/26 13:22:31;;;;;;;2.43;2.23;;;26.70;50.50;;;;;;4981788;28;20744;-71
2022/08/26 13:25:01;;;;;;;2.57;2.10;;;26.70;50.50;;;;;;4991001;28;20447;-71
2022/08/26 13:27:30;;;;;;;2.73;1.77;;;26.70;50.40;;;;;;4999334;28;20460;-71
2022/08/26 13:29:59;;;;;;;4.90;1.70;;;26.70;50.40;;;;;;4995318;28;20448;-71